sensor_id;sensor_type;location;lat;lon;timestamp;temperature;humidity
71084;DHT22;58741;52.672;13.548;2023-02-15T00:01:40;4.20;99.90
71084;DHT22;58741;52.672;13.548;2023-02-15T00:04:06;4.20;99.90
71084;DHT22;58741;52.672;13.548;2023-02-15T00:06:32;4.20;99.90
71084;DHT22;58741;52.672;13.548;2023-02-15T00:08:58;4.20;99.90
71084;DHT22;58741;52.672;13.548;2023-02-15T00:11:25;4.20;99.90
71084;DHT22;58741;52.672;13.548;2023-02-15T00:14:07;4.20;99.90
71084;DHT22;58741;52.672;13.548;2023-02-15T00:16:32;4.20;99.90
71084;DHT22;58741;52.672;13.548;2023-02-15T00:18:58;4.20;99.90
71084;DHT22;58741;52.672;13.548;2023-02-15T00:21:31;4.20;99.90
71084;DHT22;58741;52.672;13.548;2023-02-15T00:23:58;4.20;99.90
71084;DHT22;58741;52.672;13.548;2023-02-15T00:26:24;4.20;99.90
71084;DHT22;58741;52.672;13.548;2023-02-15T00:28:50;4.20;99.90
71084;DHT22;58741;52.672;13.548;2023-02-15T00:31:16;4.20;99.90
71084;DHT22;58741;52.672;13.548;2023-02-15T00:33:41;4.20;99.90
71084;DHT22;58741;52.672;13.548;2023-02-15T00:36:09;4.20;99.90
71084;DHT22;58741;52.672;13.548;2023-02-15T00:38:35;4.20;99.90
71084;DHT22;58741;52.672;13.548;2023-02-15T00:41:04;4.10;99.90
71084;DHT22;58741;52.672;13.548;2023-02-15T00:43:32;4.10;99.90
71084;DHT22;58741;52.672;13.548;2023-02-15T00:45:58;4.10;99.90
71084;DHT22;58741;52.672;13.548;2023-02-15T00:48:24;4.00;99.90
71084;DHT22;58741;52.672;13.548;2023-02-15T00:50:52;4.00;99.90
71084;DHT22;58741;52.672;13.548;2023-02-15T00:53:19;3.90;99.90
71084;DHT22;58741;52.672;13.548;2023-02-15T00:55:46;3.80;99.90
71084;DHT22;58741;52.672;13.548;2023-02-15T00:58:12;3.80;99.90
71084;DHT22;58741;52.672;13.548;2023-02-15T01:00:40;3.70;99.70
71084;DHT22;58741;52.672;13.548;2023-02-15T01:03:06;3.70;99.70
71084;DHT22;58741;52.672;13.548;2023-02-15T01:05:32;3.60;99.50
71084;DHT22;58741;52.672;13.548;2023-02-15T01:07:58;3.50;99.40
71084;DHT22;58741;52.672;13.548;2023-02-15T01:10:25;3.50;99.30
71084;DHT22;58741;52.672;13.548;2023-02-15T01:12:52;3.40;99.10
71084;DHT22;58741;52.672;13.548;2023-02-15T01:15:18;3.30;98.90
71084;DHT22;58741;52.672;13.548;2023-02-15T01:17:44;3.30;98.90
71084;DHT22;58741;52.672;13.548;2023-02-15T01:20:17;3.20;98.80
71084;DHT22;58741;52.672;13.548;2023-02-15T01:22:42;3.10;98.70
71084;DHT22;58741;52.672;13.548;2023-02-15T01:25:08;3.00;98.70
71084;DHT22;58741;52.672;13.548;2023-02-15T01:27:33;2.90;98.60
71084;DHT22;58741;52.672;13.548;2023-02-15T01:29:59;2.90;98.60
71084;DHT22;58741;52.672;13.548;2023-02-15T01:32:24;2.80;98.50
71084;DHT22;58741;52.672;13.548;2023-02-15T01:34:52;2.70;98.60
71084;DHT22;58741;52.672;13.548;2023-02-15T01:37:18;2.60;98.60
71084;DHT22;58741;52.672;13.548;2023-02-15T01:39:44;2.50;98.50
71084;DHT22;58741;52.672;13.548;2023-02-15T01:42:11;2.50;98.60
71084;DHT22;58741;52.672;13.548;2023-02-15T01:44:46;2.40;98.60
71084;DHT22;58741;52.672;13.548;2023-02-15T01:47:15;2.30;98.50
71084;DHT22;58741;52.672;13.548;2023-02-15T01:49:42;2.20;98.60
71084;DHT22;58741;52.672;13.548;2023-02-15T01:52:12;2.20;98.60
71084;DHT22;58741;52.672;13.548;2023-02-15T01:54:41;2.10;98.60
71084;DHT22;58741;52.672;13.548;2023-02-15T01:57:13;2.10;98.60
71084;DHT22;58741;52.672;13.548;2023-02-15T01:59:41;2.00;98.60
71084;DHT22;58741;52.672;13.548;2023-02-15T02:02:11;1.90;98.60
71084;DHT22;58741;52.672;13.548;2023-02-15T02:04:48;1.90;98.60
71084;DHT22;58741;52.672;13.548;2023-02-15T02:07:20;1.80;98.60
71084;DHT22;58741;52.672;13.548;2023-02-15T02:09:47;1.80;98.70
71084;DHT22;58741;52.672;13.548;2023-02-15T02:12:14;1.70;98.70
71084;DHT22;58741;52.672;13.548;2023-02-15T02:14:41;1.60;98.80
71084;DHT22;58741;52.672;13.548;2023-02-15T02:17:16;1.60;98.90
71084;DHT22;58741;52.672;13.548;2023-02-15T02:20:09;1.50;99.00
71084;DHT22;58741;52.672;13.548;2023-02-15T02:34:12;1.30;99.50
71084;DHT22;58741;52.672;13.548;2023-02-15T02:39:32;1.20;99.90
71084;DHT22;58741;52.672;13.548;2023-02-15T02:42:41;1.20;99.90
71084;DHT22;58741;52.672;13.548;2023-02-15T02:44:51;1.20;99.90
71084;DHT22;58741;52.672;13.548;2023-02-15T02:47:36;1.20;99.90
71084;DHT22;58741;52.672;13.548;2023-02-15T02:50:16;1.10;99.90
71084;DHT22;58741;52.672;13.548;2023-02-15T02:52:50;1.10;99.90
71084;DHT22;58741;52.672;13.548;2023-02-15T02:55:28;1.10;99.90
71084;DHT22;58741;52.672;13.548;2023-02-15T03:01:01;1.00;99.90
71084;DHT22;58741;52.672;13.548;2023-02-15T03:03:51;1.00;99.90
71084;DHT22;58741;52.672;13.548;2023-02-15T03:06:57;0.90;99.90
71084;DHT22;58741;52.672;13.548;2023-02-15T03:09:28;0.90;99.90
71084;DHT22;58741;52.672;13.548;2023-02-15T03:12:01;0.80;99.90
71084;DHT22;58741;52.672;13.548;2023-02-15T03:14:29;0.80;99.90
71084;DHT22;58741;52.672;13.548;2023-02-15T03:16:55;0.70;99.90
71084;DHT22;58741;52.672;13.548;2023-02-15T03:19:27;0.70;99.90
71084;DHT22;58741;52.672;13.548;2023-02-15T03:21:59;0.70;99.90
71084;DHT22;58741;52.672;13.548;2023-02-15T03:24:45;0.60;99.90
71084;DHT22;58741;52.672;13.548;2023-02-15T03:27:20;0.60;99.90
71084;DHT22;58741;52.672;13.548;2023-02-15T03:29:52;0.50;99.90
71084;DHT22;58741;52.672;13.548;2023-02-15T03:32:19;0.50;99.90
71084;DHT22;58741;52.672;13.548;2023-02-15T03:34:45;0.50;99.90
71084;DHT22;58741;52.672;13.548;2023-02-15T03:37:35;0.40;99.90
71084;DHT22;58741;52.672;13.548;2023-02-15T03:40:19;0.40;99.90
71084;DHT22;58741;52.672;13.548;2023-02-15T03:43:16;0.30;99.90
71084;DHT22;58741;52.672;13.548;2023-02-15T03:45:47;0.30;99.90
71084;DHT22;58741;52.672;13.548;2023-02-15T03:48:28;0.30;99.90
71084;DHT22;58741;52.672;13.548;2023-02-15T03:50:58;0.20;99.90
71084;DHT22;58741;52.672;13.548;2023-02-15T03:53:45;0.20;99.90
71084;DHT22;58741;52.672;13.548;2023-02-15T03:56:11;0.20;99.90
71084;DHT22;58741;52.672;13.548;2023-02-15T03:58:37;0.10;99.90
71084;DHT22;58741;52.672;13.548;2023-02-15T04:01:34;0.10;99.90
71084;DHT22;58741;52.672;13.548;2023-02-15T04:04:34;0.10;99.90
71084;DHT22;58741;52.672;13.548;2023-02-15T04:07:01;0.00;99.90
71084;DHT22;58741;52.672;13.548;2023-02-15T04:09:27;0.00;99.90
71084;DHT22;58741;52.672;13.548;2023-02-15T04:12:11;0.00;99.90
71084;DHT22;58741;52.672;13.548;2023-02-15T04:14:37;0.00;99.90
71084;DHT22;58741;52.672;13.548;2023-02-15T04:17:21;-0.10;99.90
71084;DHT22;58741;52.672;13.548;2023-02-15T04:19:46;-0.10;99.90
71084;DHT22;58741;52.672;13.548;2023-02-15T04:22:31;-0.10;99.90
71084;DHT22;58741;52.672;13.548;2023-02-15T04:25:16;-0.20;99.90
71084;DHT22;58741;52.672;13.548;2023-02-15T04:27:48;-0.20;99.90
71084;DHT22;58741;52.672;13.548;2023-02-15T04:30:15;-0.20;99.90
71084;DHT22;58741;52.672;13.548;2023-02-15T04:32:41;-0.20;99.90
71084;DHT22;58741;52.672;13.548;2023-02-15T04:35:07;-0.20;99.90
71084;DHT22;58741;52.672;13.548;2023-02-15T04:37:34;-0.20;99.90
71084;DHT22;58741;52.672;13.548;2023-02-15T04:40:00;-0.30;99.90
71084;DHT22;58741;52.672;13.548;2023-02-15T04:42:26;-0.30;99.90
71084;DHT22;58741;52.672;13.548;2023-02-15T04:44:52;-0.30;99.90
71084;DHT22;58741;52.672;13.548;2023-02-15T04:47:18;-0.30;99.90
71084;DHT22;58741;52.672;13.548;2023-02-15T04:49:44;-0.40;99.90
71084;DHT22;58741;52.672;13.548;2023-02-15T04:52:10;-0.40;99.90
71084;DHT22;58741;52.672;13.548;2023-02-15T04:54:35;-0.40;99.90
71084;DHT22;58741;52.672;13.548;2023-02-15T04:57:01;-0.40;99.90
71084;DHT22;58741;52.672;13.548;2023-02-15T04:59:27;-0.40;99.90
71084;DHT22;58741;52.672;13.548;2023-02-15T05:01:52;-0.50;99.90
71084;DHT22;58741;52.672;13.548;2023-02-15T05:04:18;-0.50;99.90
71084;DHT22;58741;52.672;13.548;2023-02-15T05:06:43;-0.50;99.90
71084;DHT22;58741;52.672;13.548;2023-02-15T05:09:11;-0.50;99.90
71084;DHT22;58741;52.672;13.548;2023-02-15T05:11:36;-0.60;99.90
71084;DHT22;58741;52.672;13.548;2023-02-15T05:14:02;-0.60;99.90
71084;DHT22;58741;52.672;13.548;2023-02-15T05:16:27;-0.60;99.90
71084;DHT22;58741;52.672;13.548;2023-02-15T05:18:53;-0.60;99.90
71084;DHT22;58741;52.672;13.548;2023-02-15T05:21:19;-0.60;99.90
71084;DHT22;58741;52.672;13.548;2023-02-15T05:23:44;-0.60;99.90
71084;DHT22;58741;52.672;13.548;2023-02-15T05:26:18;-0.60;99.90
71084;DHT22;58741;52.672;13.548;2023-02-15T05:29:03;-0.60;99.90
71084;DHT22;58741;52.672;13.548;2023-02-15T05:31:31;-0.70;99.90
71084;DHT22;58741;52.672;13.548;2023-02-15T05:33:57;-0.70;99.90
71084;DHT22;58741;52.672;13.548;2023-02-15T05:36:22;-0.70;99.90
71084;DHT22;58741;52.672;13.548;2023-02-15T05:38:48;-0.80;99.90
71084;DHT22;58741;52.672;13.548;2023-02-15T05:41:13;-0.80;99.90
71084;DHT22;58741;52.672;13.548;2023-02-15T05:43:39;-0.80;99.90
71084;DHT22;58741;52.672;13.548;2023-02-15T05:46:05;-0.80;99.90
71084;DHT22;58741;52.672;13.548;2023-02-15T05:48:32;-0.90;99.90
71084;DHT22;58741;52.672;13.548;2023-02-15T05:50:58;-0.90;99.90
71084;DHT22;58741;52.672;13.548;2023-02-15T05:53:25;-0.90;99.90
71084;DHT22;58741;52.672;13.548;2023-02-15T05:55:51;-1.00;99.90
71084;DHT22;58741;52.672;13.548;2023-02-15T05:58:17;-0.90;99.90
71084;DHT22;58741;52.672;13.548;2023-02-15T06:00:42;-0.90;99.90
71084;DHT22;58741;52.672;13.548;2023-02-15T06:03:08;-0.90;99.90
71084;DHT22;58741;52.672;13.548;2023-02-15T06:05:33;-0.90;99.90
71084;DHT22;58741;52.672;13.548;2023-02-15T06:07:59;-0.90;99.90
71084;DHT22;58741;52.672;13.548;2023-02-15T06:10:24;-0.80;99.90
71084;DHT22;58741;52.672;13.548;2023-02-15T06:12:50;-0.90;99.90
71084;DHT22;58741;52.672;13.548;2023-02-15T06:15:15;-0.80;99.90
71084;DHT22;58741;52.672;13.548;2023-02-15T06:17:41;-0.80;99.90
71084;DHT22;58741;52.672;13.548;2023-02-15T06:20:08;-0.80;99.90
71084;DHT22;58741;52.672;13.548;2023-02-15T06:22:34;-0.80;99.90
71084;DHT22;58741;52.672;13.548;2023-02-15T06:24:59;-0.80;99.90
71084;DHT22;58741;52.672;13.548;2023-02-15T06:27:25;-0.80;99.90
71084;DHT22;58741;52.672;13.548;2023-02-15T06:29:51;-0.80;99.90
71084;DHT22;58741;52.672;13.548;2023-02-15T06:32:16;-0.80;99.90
71084;DHT22;58741;52.672;13.548;2023-02-15T06:34:42;-0.80;99.90
71084;DHT22;58741;52.672;13.548;2023-02-15T06:37:07;-0.70;99.90
71084;DHT22;58741;52.672;13.548;2023-02-15T06:39:34;-0.70;99.90
71084;DHT22;58741;52.672;13.548;2023-02-15T06:41:59;-0.70;99.90
71084;DHT22;58741;52.672;13.548;2023-02-15T06:44:25;-0.70;99.90
71084;DHT22;58741;52.672;13.548;2023-02-15T06:46:50;-0.60;99.90
71084;DHT22;58741;52.672;13.548;2023-02-15T06:49:16;-0.60;99.90
71084;DHT22;58741;52.672;13.548;2023-02-15T06:51:41;-0.60;99.90
71084;DHT22;58741;52.672;13.548;2023-02-15T06:54:07;-0.50;99.90
71084;DHT22;58741;52.672;13.548;2023-02-15T06:56:33;-0.50;99.90
71084;DHT22;58741;52.672;13.548;2023-02-15T06:58:58;-0.50;99.90
71084;DHT22;58741;52.672;13.548;2023-02-15T07:01:24;-0.40;99.90
71084;DHT22;58741;52.672;13.548;2023-02-15T07:03:49;-0.40;99.90
71084;DHT22;58741;52.672;13.548;2023-02-15T07:06:15;-0.40;99.90
71084;DHT22;58741;52.672;13.548;2023-02-15T07:08:41;-0.40;99.90
71084;DHT22;58741;52.672;13.548;2023-02-15T07:11:07;-0.40;99.90
71084;DHT22;58741;52.672;13.548;2023-02-15T07:13:51;-0.30;99.90
71084;DHT22;58741;52.672;13.548;2023-02-15T07:16:18;-0.30;99.90
71084;DHT22;58741;52.672;13.548;2023-02-15T07:18:44;-0.30;99.90
71084;DHT22;58741;52.672;13.548;2023-02-15T07:21:09;-0.20;99.90
71084;DHT22;58741;52.672;13.548;2023-02-15T07:23:36;-0.20;99.90
71084;DHT22;58741;52.672;13.548;2023-02-15T07:26:02;-0.20;99.90
71084;DHT22;58741;52.672;13.548;2023-02-15T07:28:28;-0.20;99.90
71084;DHT22;58741;52.672;13.548;2023-02-15T07:30:54;-0.10;99.90
71084;DHT22;58741;52.672;13.548;2023-02-15T07:33:19;-0.10;99.90
71084;DHT22;58741;52.672;13.548;2023-02-15T07:35:49;-0.10;99.90
71084;DHT22;58741;52.672;13.548;2023-02-15T07:38:15;-0.10;99.90
71084;DHT22;58741;52.672;13.548;2023-02-15T07:40:41;0.00;99.90
71084;DHT22;58741;52.672;13.548;2023-02-15T07:43:07;0.00;99.90
71084;DHT22;58741;52.672;13.548;2023-02-15T07:45:32;0.00;99.90
71084;DHT22;58741;52.672;13.548;2023-02-15T07:47:59;0.10;99.90
71084;DHT22;58741;52.672;13.548;2023-02-15T07:50:25;0.10;99.90
71084;DHT22;58741;52.672;13.548;2023-02-15T07:52:50;0.10;99.90
71084;DHT22;58741;52.672;13.548;2023-02-15T07:55:16;0.20;99.90
71084;DHT22;58741;52.672;13.548;2023-02-15T07:57:46;0.20;99.90
71084;DHT22;58741;52.672;13.548;2023-02-15T08:00:13;0.20;99.90
71084;DHT22;58741;52.672;13.548;2023-02-15T08:02:39;0.20;99.90
71084;DHT22;58741;52.672;13.548;2023-02-15T08:05:05;0.20;99.90
71084;DHT22;58741;52.672;13.548;2023-02-15T08:07:31;0.30;99.90
71084;DHT22;58741;52.672;13.548;2023-02-15T08:09:56;0.30;99.90
71084;DHT22;58741;52.672;13.548;2023-02-15T08:12:22;0.30;99.90
71084;DHT22;58741;52.672;13.548;2023-02-15T08:14:47;0.30;99.90
71084;DHT22;58741;52.672;13.548;2023-02-15T08:17:13;0.40;99.90
71084;DHT22;58741;52.672;13.548;2023-02-15T08:19:39;0.40;99.90
71084;DHT22;58741;52.672;13.548;2023-02-15T08:22:06;0.40;99.90
71084;DHT22;58741;52.672;13.548;2023-02-15T08:24:35;0.50;99.90
71084;DHT22;58741;52.672;13.548;2023-02-15T08:27:02;0.50;99.90
71084;DHT22;58741;52.672;13.548;2023-02-15T08:29:30;0.50;99.90
71084;DHT22;58741;52.672;13.548;2023-02-15T08:32:02;0.50;99.90
71084;DHT22;58741;52.672;13.548;2023-02-15T08:34:29;0.50;99.90
71084;DHT22;58741;52.672;13.548;2023-02-15T08:36:56;0.50;99.90
71084;DHT22;58741;52.672;13.548;2023-02-15T08:39:22;0.50;99.90
71084;DHT22;58741;52.672;13.548;2023-02-15T08:41:48;0.60;99.90
71084;DHT22;58741;52.672;13.548;2023-02-15T08:44:15;0.60;99.90
71084;DHT22;58741;52.672;13.548;2023-02-15T08:46:43;0.60;99.90
71084;DHT22;58741;52.672;13.548;2023-02-15T08:49:09;0.70;99.90
71084;DHT22;58741;52.672;13.548;2023-02-15T08:51:37;0.70;99.90
71084;DHT22;58741;52.672;13.548;2023-02-15T08:54:06;0.80;99.90
71084;DHT22;58741;52.672;13.548;2023-02-15T08:56:34;0.80;99.90
71084;DHT22;58741;52.672;13.548;2023-02-15T08:59:00;0.80;99.90
71084;DHT22;58741;52.672;13.548;2023-02-15T09:01:28;0.80;99.90
71084;DHT22;58741;52.672;13.548;2023-02-15T09:03:59;0.80;99.90
71084;DHT22;58741;52.672;13.548;2023-02-15T09:06:26;0.80;99.90
71084;DHT22;58741;52.672;13.548;2023-02-15T09:08:51;0.80;99.90
71084;DHT22;58741;52.672;13.548;2023-02-15T09:11:19;0.90;99.90
71084;DHT22;58741;52.672;13.548;2023-02-15T09:13:55;0.90;99.90
71084;DHT22;58741;52.672;13.548;2023-02-15T09:16:23;0.90;99.90
71084;DHT22;58741;52.672;13.548;2023-02-15T09:18:49;0.90;99.90
71084;DHT22;58741;52.672;13.548;2023-02-15T09:21:18;1.00;99.90
71084;DHT22;58741;52.672;13.548;2023-02-15T09:23:45;1.00;99.90
71084;DHT22;58741;52.672;13.548;2023-02-15T09:26:13;1.00;99.90
71084;DHT22;58741;52.672;13.548;2023-02-15T09:28:40;1.10;99.90
71084;DHT22;58741;52.672;13.548;2023-02-15T09:31:18;1.10;99.90
71084;DHT22;58741;52.672;13.548;2023-02-15T09:33:45;1.10;99.90
71084;DHT22;58741;52.672;13.548;2023-02-15T09:36:26;1.20;99.90
71084;DHT22;58741;52.672;13.548;2023-02-15T09:38:57;1.20;99.90
71084;DHT22;58741;52.672;13.548;2023-02-15T09:55:25;1.50;99.90
71084;DHT22;58741;52.672;13.548;2023-02-15T09:58:22;1.50;99.90
71084;DHT22;58741;52.672;13.548;2023-02-15T10:01:01;1.60;99.90
71084;DHT22;58741;52.672;13.548;2023-02-15T10:06:27;1.70;99.90
71084;DHT22;58741;52.672;13.548;2023-02-15T10:09:14;1.70;99.90
71084;DHT22;58741;52.672;13.548;2023-02-15T10:15:08;1.90;99.90
71084;DHT22;58741;52.672;13.548;2023-02-15T10:17:46;2.00;99.90
71084;DHT22;58741;52.672;13.548;2023-02-15T10:20:28;2.00;99.90
71084;DHT22;58741;52.672;13.548;2023-02-15T10:25:31;2.20;99.90
71084;DHT22;58741;52.672;13.548;2023-02-15T10:28:06;2.20;99.90
71084;DHT22;58741;52.672;13.548;2023-02-15T10:30:50;2.30;99.90
71084;DHT22;58741;52.672;13.548;2023-02-15T10:41:22;2.50;99.90
71084;DHT22;58741;52.672;13.548;2023-02-15T10:46:42;2.60;99.90
71084;DHT22;58741;52.672;13.548;2023-02-15T10:52:14;2.70;99.90
71084;DHT22;58741;52.672;13.548;2023-02-15T10:55:07;2.80;99.90
71084;DHT22;58741;52.672;13.548;2023-02-15T11:03:02;2.90;99.90
71084;DHT22;58741;52.672;13.548;2023-02-15T11:05:41;3.00;99.90
71084;DHT22;58741;52.672;13.548;2023-02-15T11:08:10;3.00;99.90
71084;DHT22;58741;52.672;13.548;2023-02-15T11:10:40;3.10;99.90
71084;DHT22;58741;52.672;13.548;2023-02-15T11:13:11;3.10;99.90
71084;DHT22;58741;52.672;13.548;2023-02-15T11:18:38;3.30;99.90
71084;DHT22;58741;52.672;13.548;2023-02-15T11:23:37;3.40;99.90
71084;DHT22;58741;52.672;13.548;2023-02-15T11:26:10;3.50;99.90
71084;DHT22;58741;52.672;13.548;2023-02-15T11:28:45;3.60;99.90
71084;DHT22;58741;52.672;13.548;2023-02-15T11:31:16;3.60;99.90
71084;DHT22;58741;52.672;13.548;2023-02-15T11:33:46;3.70;99.90
71084;DHT22;58741;52.672;13.548;2023-02-15T11:36:33;3.80;99.90
71084;DHT22;58741;52.672;13.548;2023-02-15T11:39:05;3.90;99.90
71084;DHT22;58741;52.672;13.548;2023-02-15T11:41:46;4.00;99.90
71084;DHT22;58741;52.672;13.548;2023-02-15T11:44:21;4.10;99.90
71084;DHT22;58741;52.672;13.548;2023-02-15T11:46:49;4.10;99.90
71084;DHT22;58741;52.672;13.548;2023-02-15T11:49:22;4.20;99.90
71084;DHT22;58741;52.672;13.548;2023-02-15T11:51:49;4.30;99.90
71084;DHT22;58741;52.672;13.548;2023-02-15T11:54:18;4.40;99.90
71084;DHT22;58741;52.672;13.548;2023-02-15T11:56:45;4.50;99.90
71084;DHT22;58741;52.672;13.548;2023-02-15T11:59:15;4.70;99.90
71084;DHT22;58741;52.672;13.548;2023-02-15T12:01:45;4.90;99.90
71084;DHT22;58741;52.672;13.548;2023-02-15T12:04:32;5.10;99.90
71084;DHT22;58741;52.672;13.548;2023-02-15T12:07:23;5.20;99.90
71084;DHT22;58741;52.672;13.548;2023-02-15T12:12:39;5.70;99.90
71084;DHT22;58741;52.672;13.548;2023-02-15T12:15:07;5.90;99.90
71084;DHT22;58741;52.672;13.548;2023-02-15T12:17:37;6.10;99.90
71084;DHT22;58741;52.672;13.548;2023-02-15T12:22:38;6.50;99.90
71084;DHT22;58741;52.672;13.548;2023-02-15T12:25:23;6.80;99.90
71084;DHT22;58741;52.672;13.548;2023-02-15T12:27:50;7.10;99.90
71084;DHT22;58741;52.672;13.548;2023-02-15T12:30:23;7.30;99.90
71084;DHT22;58741;52.672;13.548;2023-02-15T12:33:41;7.50;99.90
71084;DHT22;58741;52.672;13.548;2023-02-15T12:35:42;7.80;99.90
71084;DHT22;58741;52.672;13.548;2023-02-15T12:40:34;8.30;99.90
71084;DHT22;58741;52.672;13.548;2023-02-15T12:43:01;8.50;99.90
71084;DHT22;58741;52.672;13.548;2023-02-15T12:45:35;8.80;98.30
71084;DHT22;58741;52.672;13.548;2023-02-15T12:48:18;8.90;98.10
71084;DHT22;58741;52.672;13.548;2023-02-15T12:50:48;9.10;97.00
71084;DHT22;58741;52.672;13.548;2023-02-15T12:55:53;9.40;96.00
71084;DHT22;58741;52.672;13.548;2023-02-15T12:58:22;9.60;94.40
71084;DHT22;58741;52.672;13.548;2023-02-15T13:03:35;9.90;94.70
71084;DHT22;58741;52.672;13.548;2023-02-15T13:06:03;10.10;94.70
71084;DHT22;58741;52.672;13.548;2023-02-15T13:08:43;10.30;94.90
71084;DHT22;58741;52.672;13.548;2023-02-15T13:11:11;10.60;93.30
71084;DHT22;58741;52.672;13.548;2023-02-15T13:14:19;10.80;92.60
71084;DHT22;58741;52.672;13.548;2023-02-15T13:16:48;11.00;91.80
71084;DHT22;58741;52.672;13.548;2023-02-15T13:19:35;11.20;91.60
71084;DHT22;58741;52.672;13.548;2023-02-15T13:22:06;11.40;90.90
71084;DHT22;58741;52.672;13.548;2023-02-15T13:24:39;11.50;90.10
71084;DHT22;58741;52.672;13.548;2023-02-15T13:27:13;11.60;88.90
71084;DHT22;58741;52.672;13.548;2023-02-15T13:29:40;11.70;87.70
71084;DHT22;58741;52.672;13.548;2023-02-15T13:32:25;11.90;87.60
71084;DHT22;58741;52.672;13.548;2023-02-15T13:34:56;11.90;87.10
71084;DHT22;58741;52.672;13.548;2023-02-15T13:40:07;12.10;85.80
71084;DHT22;58741;52.672;13.548;2023-02-15T13:42:40;12.10;83.50
71084;DHT22;58741;52.672;13.548;2023-02-15T13:48:18;11.90;80.20
71084;DHT22;58741;52.672;13.548;2023-02-15T13:50:52;11.70;80.70
71084;DHT22;58741;52.672;13.548;2023-02-15T13:57:11;11.50;82.70
71084;DHT22;58741;52.672;13.548;2023-02-15T13:59:44;11.30;81.90
71084;DHT22;58741;52.672;13.548;2023-02-15T14:07:38;11.00;82.80
71084;DHT22;58741;52.672;13.548;2023-02-15T14:13:19;10.70;82.70
71084;DHT22;58741;52.672;13.548;2023-02-15T14:21:17;10.40;84.40
71084;DHT22;58741;52.672;13.548;2023-02-15T14:24:14;10.30;85.30
71084;DHT22;58741;52.672;13.548;2023-02-15T14:27:07;10.20;85.30
71084;DHT22;58741;52.672;13.548;2023-02-15T14:34:56;9.90;87.30
71084;DHT22;58741;52.672;13.548;2023-02-15T14:40:34;9.80;86.90
71084;DHT22;58741;52.672;13.548;2023-02-15T14:46:55;9.70;87.50
71084;DHT22;58741;52.672;13.548;2023-02-15T14:49:30;9.60;88.30
71084;DHT22;58741;52.672;13.548;2023-02-15T14:52:04;9.60;86.70
71084;DHT22;58741;52.672;13.548;2023-02-15T15:02:40;9.50;87.10
71084;DHT22;58741;52.672;13.548;2023-02-15T15:05:18;9.40;86.40
71084;DHT22;58741;52.672;13.548;2023-02-15T15:07:49;9.30;86.40
71084;DHT22;58741;52.672;13.548;2023-02-15T15:12:52;9.20;86.70
71084;DHT22;58741;52.672;13.548;2023-02-15T15:18:03;9.20;86.90
71084;DHT22;58741;52.672;13.548;2023-02-15T15:20:47;9.10;86.80
71084;DHT22;58741;52.672;13.548;2023-02-15T15:28:06;9.00;88.20
71084;DHT22;58741;52.672;13.548;2023-02-15T15:32:59;8.90;88.50
71084;DHT22;58741;52.672;13.548;2023-02-15T15:36:09;8.80;88.50
71084;DHT22;58741;52.672;13.548;2023-02-15T15:41:53;8.60;88.90
71084;DHT22;58741;52.672;13.548;2023-02-15T15:47:13;8.50;88.90
71084;DHT22;58741;52.672;13.548;2023-02-15T15:49:43;8.40;89.60
71084;DHT22;58741;52.672;13.548;2023-02-15T15:52:17;8.30;89.50
71084;DHT22;58741;52.672;13.548;2023-02-15T15:54:45;8.20;89.60
71084;DHT22;58741;52.672;13.548;2023-02-15T15:57:18;8.20;89.60
71084;DHT22;58741;52.672;13.548;2023-02-15T15:59:46;8.10;89.80
71084;DHT22;58741;52.672;13.548;2023-02-15T16:02:16;8.00;90.00
71084;DHT22;58741;52.672;13.548;2023-02-15T16:04:43;7.90;90.00
71084;DHT22;58741;52.672;13.548;2023-02-15T16:09:58;7.70;89.80
71084;DHT22;58741;52.672;13.548;2023-02-15T16:12:27;7.60;89.20
71084;DHT22;58741;52.672;13.548;2023-02-15T16:14:54;7.50;89.90
71084;DHT22;58741;52.672;13.548;2023-02-15T16:17:27;7.30;89.90
71084;DHT22;58741;52.672;13.548;2023-02-15T16:20:19;7.20;89.90
71084;DHT22;58741;52.672;13.548;2023-02-15T16:25:34;7.00;90.10
71084;DHT22;58741;52.672;13.548;2023-02-15T16:28:08;6.80;90.30
71084;DHT22;58741;52.672;13.548;2023-02-15T16:30:37;6.70;90.40
71084;DHT22;58741;52.672;13.548;2023-02-15T16:33:12;6.60;90.50
71084;DHT22;58741;52.672;13.548;2023-02-15T16:35:57;6.50;90.50
71084;DHT22;58741;52.672;13.548;2023-02-15T16:41:08;6.30;90.60
71084;DHT22;58741;52.672;13.548;2023-02-15T16:43:37;6.10;90.80
71084;DHT22;58741;52.672;13.548;2023-02-15T16:46:05;6.00;90.70
71084;DHT22;58741;52.672;13.548;2023-02-15T16:48:32;5.90;91.00
71084;DHT22;58741;52.672;13.548;2023-02-15T16:50:59;5.80;91.20
71084;DHT22;58741;52.672;13.548;2023-02-15T16:53:28;5.70;91.10
71084;DHT22;58741;52.672;13.548;2023-02-15T16:55:57;5.60;91.30
71084;DHT22;58741;52.672;13.548;2023-02-15T16:58:29;5.50;91.40
71084;DHT22;58741;52.672;13.548;2023-02-15T17:00:58;5.40;91.40
71084;DHT22;58741;52.672;13.548;2023-02-15T17:03:25;5.20;91.60
71084;DHT22;58741;52.672;13.548;2023-02-15T17:05:56;5.20;91.70
71084;DHT22;58741;52.672;13.548;2023-02-15T17:08:31;5.10;92.00
71084;DHT22;58741;52.672;13.548;2023-02-15T17:11:16;5.00;91.90
71084;DHT22;58741;52.672;13.548;2023-02-15T17:16:59;4.80;92.30
71084;DHT22;58741;52.672;13.548;2023-02-15T17:19:28;4.70;92.50
71084;DHT22;58741;52.672;13.548;2023-02-15T17:22:05;4.60;92.60
71084;DHT22;58741;52.672;13.548;2023-02-15T17:24:40;4.50;92.60
71084;DHT22;58741;52.672;13.548;2023-02-15T17:27:13;4.40;92.60
71084;DHT22;58741;52.672;13.548;2023-02-15T17:29:43;4.30;92.70
71084;DHT22;58741;52.672;13.548;2023-02-15T17:32:16;4.30;92.80
71084;DHT22;58741;52.672;13.548;2023-02-15T17:34:44;4.20;93.00
71084;DHT22;58741;52.672;13.548;2023-02-15T17:39:48;4.00;93.20
71084;DHT22;58741;52.672;13.548;2023-02-15T17:42:13;3.90;93.20
71084;DHT22;58741;52.672;13.548;2023-02-15T17:44:39;3.90;93.30
71084;DHT22;58741;52.672;13.548;2023-02-15T17:47:04;3.80;93.40
71084;DHT22;58741;52.672;13.548;2023-02-15T17:49:30;3.70;93.50
71084;DHT22;58741;52.672;13.548;2023-02-15T17:52:02;3.60;93.60
71084;DHT22;58741;52.672;13.548;2023-02-15T17:54:28;3.60;93.80
71084;DHT22;58741;52.672;13.548;2023-02-15T17:57:14;3.50;93.80
71084;DHT22;58741;52.672;13.548;2023-02-15T17:59:40;3.40;93.90
71084;DHT22;58741;52.672;13.548;2023-02-15T18:02:25;3.30;94.10
71084;DHT22;58741;52.672;13.548;2023-02-15T18:05:14;3.30;94.20
71084;DHT22;58741;52.672;13.548;2023-02-15T18:07:59;3.10;94.20
71084;DHT22;58741;52.672;13.548;2023-02-15T18:10:43;3.10;94.40
71084;DHT22;58741;52.672;13.548;2023-02-15T18:13:28;3.00;94.40
71084;DHT22;58741;52.672;13.548;2023-02-15T18:15:54;2.90;94.40
71084;DHT22;58741;52.672;13.548;2023-02-15T18:18:21;2.90;94.60
71084;DHT22;58741;52.672;13.548;2023-02-15T18:20:47;2.80;94.70
71084;DHT22;58741;52.672;13.548;2023-02-15T18:23:13;2.80;94.60
71084;DHT22;58741;52.672;13.548;2023-02-15T18:25:39;2.70;94.80